createdAt,value
2022-10-14T00:00:43.326Z,57.20
2022-10-14T00:03:10.020Z,57.30
2022-10-14T00:05:40.493Z,57.30
2022-10-14T00:08:08.944Z,57.50
2022-10-14T00:10:39.699Z,57.40
2022-10-14T00:13:07.098Z,57.70
2022-10-14T00:15:39.183Z,57.60
2022-10-14T00:18:06.893Z,57.80
2022-10-14T00:20:34.168Z,58.10
2022-10-14T00:23:01.602Z,57.60
2022-10-14T00:25:28.437Z,57.70
2022-10-14T00:27:55.410Z,57.80
2022-10-14T00:30:22.325Z,57.80
2022-10-14T00:32:49.174Z,57.90
2022-10-14T00:35:15.902Z,57.90
2022-10-14T00:37:42.807Z,58.00
2022-10-14T00:40:10.198Z,58.00
2022-10-14T00:42:36.852Z,58.10
2022-10-14T00:45:15.525Z,58.10
2022-10-14T00:47:43.928Z,58.50
2022-10-14T00:50:13.453Z,58.20
2022-10-14T00:52:40.254Z,58.30
2022-10-14T00:55:13.662Z,58.30
2022-10-14T00:57:40.587Z,58.40
2022-10-14T01:00:14.955Z,58.40
2022-10-14T01:02:42.289Z,58.40
2022-10-14T01:05:12.588Z,58.30
2022-10-14T01:08:02.882Z,58.40
2022-10-14T01:10:39.321Z,58.80
2022-10-14T01:13:22.400Z,58.60
2022-10-14T01:15:52.298Z,58.90
2022-10-14T01:18:36.895Z,58.40
2022-10-14T01:21:22.378Z,58.90
2022-10-14T01:24:29.845Z,58.90
2022-10-14T01:27:21.208Z,59.10
2022-10-14T01:29:59.962Z,58.80
2022-10-14T01:32:36.040Z,58.60
2022-10-14T01:35:16.113Z,58.70
2022-10-14T01:37:52.754Z,58.90
2022-10-14T01:40:40.466Z,59.40
2022-10-14T01:43:08.553Z,59.30
2022-10-14T01:45:37.768Z,58.80
2022-10-14T01:48:06.478Z,58.90
2022-10-14T01:50:36.226Z,59.00
2022-10-14T01:53:09.058Z,59.10
2022-10-14T01:55:40.842Z,59.10
2022-10-14T01:58:09.818Z,59.20
2022-10-14T02:00:38.078Z,59.10
2022-10-14T02:03:04.905Z,59.10
2022-10-14T02:05:44.946Z,59.10
2022-10-14T02:08:19.738Z,59.50
2022-10-14T02:11:15.487Z,59.20
2022-10-14T02:14:37.314Z,59.70
2022-10-14T02:17:12.565Z,59.90
2022-10-14T02:19:47.685Z,59.30
2022-10-14T02:22:24.978Z,59.40
2022-10-14T02:24:56.890Z,59.20
2022-10-14T02:27:27.165Z,59.50
2022-10-14T02:29:56.681Z,59.50
2022-10-14T02:32:26.027Z,59.50
2022-10-14T02:34:56.297Z,59.50
2022-10-14T02:37:24.454Z,59.60
2022-10-14T02:40:00.087Z,59.60
2022-10-14T02:42:28.905Z,59.90
2022-10-14T02:44:58.512Z,59.70
2022-10-14T02:47:25.773Z,59.80
2022-10-14T02:49:52.817Z,59.70
2022-10-14T02:52:20.325Z,59.70
2022-10-14T02:54:47.573Z,59.70
2022-10-14T02:57:14.478Z,59.60
2022-10-14T02:59:41.328Z,59.60
2022-10-14T03:02:08.412Z,59.60
2022-10-14T03:04:37.657Z,59.50
2022-10-14T03:07:04.885Z,59.60
2022-10-14T03:09:34.717Z,59.60
2022-10-14T03:12:01.782Z,59.70
2022-10-14T03:14:29.007Z,59.80
2022-10-14T03:16:56.654Z,59.80
2022-10-14T03:19:25.080Z,59.90
2022-10-14T03:21:54.661Z,59.90
2022-10-14T03:24:21.949Z,59.90
2022-10-14T03:27:00.050Z,60.00
2022-10-14T03:29:26.773Z,60.00
2022-10-14T03:31:59.761Z,60.00
2022-10-14T03:34:32.972Z,60.00
2022-10-14T03:37:05.641Z,60.20
2022-10-14T03:39:35.810Z,60.10
2022-10-14T03:42:05.303Z,60.20
2022-10-14T03:44:40.176Z,60.30
2022-10-14T03:47:30.371Z,60.20
2022-10-14T03:49:57.142Z,60.20
2022-10-14T03:52:32.941Z,60.20
2022-10-14T03:55:05.906Z,60.20
2022-10-14T03:57:33.089Z,60.30
2022-10-14T04:00:00.590Z,60.30
2022-10-14T04:02:42.951Z,60.40
2022-10-14T04:05:23.246Z,60.40
2022-10-14T04:07:50.809Z,60.40
2022-10-14T04:10:17.938Z,60.50
2022-10-14T04:12:50.878Z,61.10
2022-10-14T04:15:26.469Z,60.60
2022-10-14T04:18:08.453Z,60.40
2022-10-14T04:20:37.620Z,60.40
2022-10-14T04:23:05.177Z,60.40
2022-10-14T04:25:33.819Z,60.40
2022-10-14T04:28:03.419Z,60.40
2022-10-14T04:30:43.466Z,60.40
2022-10-14T04:33:15.928Z,60.40
2022-10-14T04:35:42.771Z,60.40
2022-10-14T04:38:17.609Z,60.50
2022-10-14T04:40:52.525Z,60.50
2022-10-14T04:43:20.481Z,60.60
2022-10-14T04:45:47.878Z,60.90
2022-10-14T04:48:22.002Z,60.50
2022-10-14T04:50:53.237Z,61.10
2022-10-14T04:53:38.109Z,60.50
2022-10-14T04:56:19.742Z,60.40
2022-10-14T04:58:56.233Z,60.40
2022-10-14T05:01:34.068Z,60.40
2022-10-14T05:04:01.212Z,60.40
2022-10-14T05:06:32.233Z,60.50
2022-10-14T05:08:58.902Z,60.50
2022-10-14T05:11:25.561Z,60.50
2022-10-14T05:13:55.547Z,60.60
2022-10-14T05:16:24.826Z,60.60
2022-10-14T05:18:53.521Z,61.30
2022-10-14T05:21:20.253Z,60.60
2022-10-14T05:24:09.647Z,60.60
2022-10-14T05:26:38.540Z,60.60
2022-10-14T05:29:10.792Z,60.70
2022-10-14T05:31:38.828Z,60.80
2022-10-14T05:34:21.414Z,60.70
2022-10-14T05:36:48.201Z,60.60
2022-10-14T05:39:15.780Z,60.70
2022-10-14T05:41:43.320Z,60.70
2022-10-14T05:44:11.935Z,60.70
2022-10-14T05:46:39.472Z,60.90
2022-10-14T05:49:06.423Z,60.80
2022-10-14T05:51:36.990Z,60.90
2022-10-14T05:54:11.885Z,60.90
2022-10-14T05:56:41.515Z,60.80
2022-10-14T05:59:10.421Z,60.90
2022-10-14T06:01:38.255Z,61.10
2022-10-14T06:04:05.085Z,61.10
2022-10-14T06:06:32.862Z,61.20
2022-10-14T06:08:59.552Z,61.30
2022-10-14T06:11:26.362Z,61.40
2022-10-14T06:13:53.531Z,61.50
2022-10-14T06:16:20.389Z,61.50
2022-10-14T06:18:49.944Z,61.60
2022-10-14T06:21:20.926Z,61.70
2022-10-14T06:23:47.850Z,61.70
2022-10-14T06:26:14.616Z,61.80
2022-10-14T06:28:41.605Z,61.90
2022-10-14T06:31:08.290Z,61.80
2022-10-14T06:33:35.192Z,61.80
2022-10-14T06:36:03.862Z,61.90
2022-10-14T06:38:30.827Z,62.10
2022-10-14T06:40:57.553Z,62.10
2022-10-14T06:43:24.205Z,62.30
2022-10-14T06:45:51.036Z,62.40
2022-10-14T06:48:17.671Z,62.40
2022-10-14T06:50:44.294Z,62.40
2022-10-14T06:53:10.911Z,62.50
2022-10-14T06:55:37.664Z,62.60
2022-10-14T06:58:04.351Z,62.70
2022-10-14T07:00:31.461Z,62.60
2022-10-14T07:02:59.427Z,62.60
2022-10-14T07:05:27.139Z,62.40
2022-10-14T07:07:53.989Z,62.40
2022-10-14T07:10:20.782Z,62.30
2022-10-14T07:12:47.387Z,62.40
2022-10-14T07:15:14.498Z,62.50
2022-10-14T07:17:41.226Z,62.50
2022-10-14T07:20:08.269Z,62.50
2022-10-14T07:22:38.956Z,62.40
2022-10-14T07:25:06.553Z,62.40
2022-10-14T07:27:33.181Z,62.40
2022-10-14T07:30:01.555Z,62.20
2022-10-14T07:32:28.440Z,62.30
2022-10-14T07:34:55.226Z,62.20
2022-10-14T07:37:22.354Z,62.30
2022-10-14T07:39:49.565Z,62.40
2022-10-14T07:42:16.434Z,62.60
2022-10-14T07:44:43.195Z,62.60
2022-10-14T07:47:10.048Z,62.60
2022-10-14T07:49:36.967Z,62.60
2022-10-14T07:52:03.847Z,62.70
2022-10-14T07:54:32.440Z,62.70
2022-10-14T07:56:59.547Z,62.70
2022-10-14T07:59:26.645Z,62.70
2022-10-14T08:01:55.509Z,62.80
2022-10-14T08:04:23.152Z,62.90
2022-10-14T08:06:51.022Z,62.80
2022-10-14T08:09:19.043Z,62.90
2022-10-14T08:11:46.228Z,63.00
2022-10-14T08:14:13.354Z,63.10
2022-10-14T08:16:40.185Z,63.10
2022-10-14T08:19:14.203Z,63.10
2022-10-14T08:21:43.049Z,63.20
2022-10-14T08:24:10.369Z,63.10
2022-10-14T08:26:48.792Z,63.10
2022-10-14T08:29:16.054Z,63.30
2022-10-14T08:31:42.704Z,63.00
2022-10-14T08:34:11.040Z,63.10
2022-10-14T08:36:37.937Z,63.30
2022-10-14T08:39:05.701Z,63.30
2022-10-14T08:41:35.750Z,63.40
2022-10-14T08:44:08.500Z,63.50
2022-10-14T08:46:52.118Z,63.20
2022-10-14T08:49:28.850Z,63.10
2022-10-14T08:52:01.276Z,62.90
2022-10-14T08:54:40.370Z,63.20
2022-10-14T08:57:16.433Z,63.60
2022-10-14T08:59:43.298Z,63.70
2022-10-14T09:02:38.472Z,63.60
2022-10-14T09:05:06.058Z,64.30
2022-10-14T09:07:36.143Z,64.20
2022-10-14T09:10:08.177Z,64.50
2022-10-14T09:12:36.303Z,64.80
2022-10-14T09:15:18.087Z,64.90
2022-10-14T09:18:00.958Z,64.80
2022-10-14T09:20:27.623Z,64.50
2022-10-14T09:23:05.259Z,64.20
2022-10-14T09:25:34.991Z,63.50
2022-10-14T09:28:01.816Z,63.40
2022-10-14T09:30:33.409Z,62.80
2022-10-14T09:33:00.830Z,62.50
2022-10-14T09:35:37.486Z,62.60
2022-10-14T09:38:04.635Z,62.60
2022-10-14T09:40:37.069Z,62.70
2022-10-14T09:43:17.101Z,62.40
2022-10-14T09:46:08.122Z,61.60
2022-10-14T09:48:47.746Z,61.40
2022-10-14T09:51:27.730Z,61.50
2022-10-14T09:53:57.210Z,61.80
2022-10-14T09:56:30.056Z,62.00
2022-10-14T09:58:58.393Z,61.40
2022-10-14T10:01:31.877Z,61.20
2022-10-14T10:04:24.377Z,59.90
2022-10-14T10:06:53.341Z,59.40
2022-10-14T10:09:20.701Z,59.40
2022-10-14T10:11:47.865Z,59.40
2022-10-14T10:14:24.006Z,59.30
2022-10-14T10:17:13.886Z,58.90
2022-10-14T10:19:44.843Z,58.40
2022-10-14T10:22:23.787Z,58.90
2022-10-14T10:24:59.305Z,58.30
2022-10-14T10:27:35.978Z,58.60
2022-10-14T10:30:24.628Z,58.80
2022-10-14T10:33:08.947Z,59.10
2022-10-14T10:35:59.522Z,59.30
2022-10-14T10:38:49.635Z,59.40
2022-10-14T10:41:16.295Z,59.40
2022-10-14T10:43:58.313Z,59.30
2022-10-14T10:46:36.913Z,58.50
2022-10-14T10:49:29.491Z,58.90
2022-10-14T10:52:16.203Z,58.80
2022-10-14T10:55:10.283Z,58.30
2022-10-14T10:57:52.720Z,58.70
2022-10-14T11:03:09.804Z,59.00
2022-10-14T11:06:04.232Z,59.00
2022-10-14T11:08:56.160Z,57.90
2022-10-14T11:12:01.142Z,57.90
2022-10-14T11:14:46.228Z,57.80
2022-10-14T11:17:20.687Z,58.00
2022-10-14T11:19:59.047Z,58.20
2022-10-14T11:22:53.959Z,58.10
2022-10-14T11:25:51.076Z,57.70
2022-10-14T11:28:38.297Z,56.90
2022-10-14T11:31:09.691Z,57.20
2022-10-14T11:34:06.358Z,57.30
2022-10-14T11:36:55.057Z,57.10
2022-10-14T11:39:46.486Z,57.10
2022-10-14T11:42:32.039Z,57.10
2022-10-14T11:45:30.915Z,57.60
2022-10-14T11:48:17.534Z,57.20
2022-10-14T11:50:49.376Z,57.20
2022-10-14T11:53:21.149Z,57.10
2022-10-14T11:56:04.496Z,57.00
2022-10-14T11:58:34.976Z,57.00
2022-10-14T12:01:05.035Z,57.40
2022-10-14T12:04:06.149Z,57.40
2022-10-14T12:06:36.480Z,57.60
2022-10-14T12:09:25.054Z,57.80
2022-10-14T12:11:57.822Z,57.70
2022-10-14T12:14:42.603Z,58.10
2022-10-14T12:17:43.472Z,57.80
2022-10-14T12:20:24.988Z,57.40
2022-10-14T12:22:53.349Z,57.30
2022-10-14T12:25:22.794Z,57.40
2022-10-14T12:27:52.094Z,57.60
2022-10-14T12:30:37.895Z,57.60
2022-10-14T12:33:10.383Z,57.80
2022-10-14T12:35:49.382Z,57.80
2022-10-14T12:38:20.255Z,57.80
2022-10-14T12:40:50.885Z,57.90
2022-10-14T12:43:29.666Z,57.70
2022-10-14T12:46:01.102Z,57.60
2022-10-14T12:48:33.106Z,57.80
2022-10-14T12:51:15.809Z,57.90
2022-10-14T12:53:51.570Z,58.20
2022-10-14T12:56:38.061Z,58.10
2022-10-14T12:59:08.958Z,58.30
2022-10-14T13:01:37.517Z,58.30
2022-10-14T13:04:20.159Z,58.40
2022-10-14T13:07:38.934Z,58.50
2022-10-14T13:10:41.693Z,59.00
2022-10-14T13:13:47.817Z,59.00
2022-10-14T13:16:23.607Z,58.90
2022-10-14T13:19:01.546Z,58.90
2022-10-14T13:21:34.066Z,58.90
2022-10-14T13:24:02.073Z,59.00
2022-10-14T13:26:37.922Z,58.90
2022-10-14T13:29:17.500Z,59.10
2022-10-14T13:31:59.726Z,59.40
2022-10-14T13:34:49.620Z,59.00
2022-10-14T13:37:40.789Z,59.10
2022-10-14T13:40:27.219Z,59.00
2022-10-14T13:42:57.327Z,59.30
2022-10-14T13:45:32.318Z,59.20
2022-10-14T13:47:59.803Z,59.40
2022-10-14T13:50:32.029Z,59.50
2022-10-14T13:53:12.662Z,59.60
2022-10-14T13:55:54.416Z,59.40
2022-10-14T13:58:23.075Z,59.60
2022-10-14T14:00:52.278Z,59.50
2022-10-14T14:03:37.558Z,59.70
2022-10-14T14:06:15.437Z,59.60
2022-10-14T14:08:52.360Z,60.10
2022-10-14T14:11:24.165Z,59.50
2022-10-14T14:14:01.711Z,59.90
2022-10-14T14:16:41.759Z,59.50
2022-10-14T14:19:28.278Z,59.30
2022-10-14T14:22:19.793Z,59.20
2022-10-14T14:24:48.069Z,59.30
2022-10-14T14:27:18.225Z,59.10
2022-10-14T14:29:47.817Z,59.30
2022-10-14T14:32:28.877Z,59.30
2022-10-14T14:34:56.034Z,59.30
2022-10-14T14:40:25.044Z,59.30
2022-10-14T14:43:00.572Z,59.20
2022-10-14T14:45:35.367Z,59.30
2022-10-14T14:48:04.863Z,59.40
2022-10-14T14:50:38.865Z,59.40
2022-10-14T14:53:21.543Z,59.50
2022-10-14T14:55:54.622Z,59.70
2022-10-14T14:58:33.334Z,59.70
2022-10-14T15:01:00.525Z,59.60
2022-10-14T15:03:31.140Z,59.50
2022-10-14T15:06:00.974Z,59.60
2022-10-14T15:08:30.927Z,59.70
2022-10-14T15:10:58.998Z,59.70
2022-10-14T15:13:39.839Z,59.80
2022-10-14T15:16:07.311Z,60.10
2022-10-14T15:18:37.385Z,60.00
2022-10-14T15:21:07.180Z,59.90
2022-10-14T15:23:55.922Z,59.90
2022-10-14T15:26:24.010Z,60.40
2022-10-14T15:29:16.470Z,60.10
2022-10-14T15:31:46.137Z,60.70
2022-10-14T15:34:20.976Z,60.50
2022-10-14T15:36:50.505Z,60.60
2022-10-14T15:39:17.542Z,60.80
2022-10-14T15:41:45.053Z,60.70
2022-10-14T15:44:12.294Z,60.70
2022-10-14T15:46:59.545Z,60.90
2022-10-14T15:49:33.712Z,61.00
2022-10-14T15:52:00.333Z,61.10
2022-10-14T15:54:27.494Z,60.80
2022-10-14T15:59:28.158Z,61.10
2022-10-14T16:01:55.017Z,61.20
2022-10-14T16:04:24.693Z,61.20
2022-10-14T16:06:54.714Z,61.30
2022-10-14T16:09:22.954Z,61.20
2022-10-14T16:11:56.909Z,61.30
2022-10-14T16:14:27.811Z,61.20
2022-10-14T16:16:55.191Z,61.30
2022-10-14T16:19:22.184Z,61.20
2022-10-14T16:21:50.284Z,61.90
2022-10-14T16:24:20.172Z,61.40
2022-10-14T16:26:49.121Z,61.50
2022-10-14T16:29:18.088Z,61.50
2022-10-14T16:31:49.817Z,61.60
2022-10-14T16:34:18.060Z,61.70
2022-10-14T16:36:45.679Z,61.80
2022-10-14T16:39:13.702Z,61.80
2022-10-14T16:41:40.342Z,61.90
2022-10-14T16:44:07.746Z,61.90
2022-10-14T16:46:52.878Z,61.90
2022-10-14T16:49:19.521Z,62.00
2022-10-14T16:51:46.205Z,61.90
2022-10-14T16:54:12.839Z,62.00
2022-10-14T16:56:56.770Z,62.10
2022-10-14T16:59:24.670Z,62.30
2022-10-14T17:01:52.367Z,62.50
2022-10-14T17:04:20.221Z,62.70
2022-10-14T17:06:51.338Z,62.70
2022-10-14T17:09:19.207Z,62.60
2022-10-14T17:11:46.815Z,62.70
2022-10-14T17:14:17.642Z,62.60
2022-10-14T17:16:44.661Z,62.70
2022-10-14T17:19:11.329Z,62.60
2022-10-14T17:21:39.664Z,62.70
2022-10-14T17:24:07.380Z,62.70
2022-10-14T17:26:34.408Z,62.60
2022-10-14T17:29:01.777Z,62.80
2022-10-14T17:31:29.566Z,62.90
2022-10-14T17:33:56.510Z,62.90
2022-10-14T17:36:27.814Z,62.90
2022-10-14T17:38:57.250Z,63.20
2022-10-14T17:41:25.534Z,63.20
2022-10-14T17:43:55.380Z,63.30
2022-10-14T17:46:24.809Z,63.50
2022-10-14T17:48:53.800Z,63.50
2022-10-14T17:51:25.208Z,63.70
2022-10-14T17:54:01.373Z,63.60
2022-10-14T17:56:29.569Z,64.10
2022-10-14T17:58:58.921Z,63.70
2022-10-14T18:01:37.427Z,63.80
2022-10-14T18:04:14.211Z,63.80
2022-10-14T18:06:44.754Z,63.70
2022-10-14T18:09:11.980Z,63.90
2022-10-14T18:12:10.044Z,63.70
2022-10-14T18:14:28.734Z,63.70
2022-10-14T18:16:55.709Z,63.40
2022-10-14T18:19:22.644Z,63.50
2022-10-14T18:21:49.383Z,63.60
2022-10-14T18:24:16.216Z,63.50
2022-10-14T18:26:42.928Z,63.50
2022-10-14T18:29:09.802Z,63.60
2022-10-14T18:31:37.353Z,63.60
2022-10-14T18:34:04.179Z,63.80
2022-10-14T18:36:32.969Z,63.90
2022-10-14T18:39:02.806Z,64.20
2022-10-14T18:41:30.352Z,64.30
2022-10-14T18:43:58.030Z,64.20
2022-10-14T18:46:28.005Z,64.30
2022-10-14T18:48:56.901Z,64.50
2022-10-14T18:51:26.625Z,64.60
2022-10-14T18:53:56.570Z,64.70
2022-10-14T18:56:26.199Z,64.80
2022-10-14T18:58:59.871Z,64.90
2022-10-14T19:01:27.769Z,65.20
2022-10-14T19:03:55.422Z,64.90
2022-10-14T19:06:23.014Z,65.10
2022-10-14T19:08:50.295Z,65.40
2022-10-14T19:11:20.376Z,65.10
2022-10-14T19:13:48.660Z,65.20
2022-10-14T19:16:18.585Z,65.30
2022-10-14T19:18:45.641Z,65.60
2022-10-14T19:21:15.353Z,65.60
2022-10-14T19:23:43.681Z,65.90
2022-10-14T19:26:13.539Z,66.00
2022-10-14T19:28:41.106Z,66.10
2022-10-14T19:31:16.075Z,66.00
2022-10-14T19:33:44.379Z,66.10
2022-10-14T19:36:13.145Z,66.10
2022-10-14T19:38:40.339Z,66.70
2022-10-14T19:41:08.499Z,66.00
2022-10-14T19:43:35.518Z,66.10
2022-10-14T19:46:10.690Z,65.90
2022-10-14T19:48:37.584Z,66.20
2022-10-14T19:51:07.212Z,65.80
2022-10-14T19:53:34.820Z,65.80
2022-10-14T19:56:06.481Z,65.70
2022-10-14T19:58:33.996Z,65.90
2022-10-14T20:01:08.860Z,65.60
2022-10-14T20:03:36.537Z,65.90
2022-10-14T20:06:04.382Z,65.50
2022-10-14T20:08:31.775Z,65.50
2022-10-14T20:11:03.349Z,65.40
2022-10-14T20:13:30.854Z,65.60
2022-10-14T20:16:00.378Z,65.40
2022-10-14T20:18:28.442Z,65.50
2022-10-14T20:20:56.673Z,65.20
2022-10-14T20:23:24.828Z,65.20
2022-10-14T20:25:51.923Z,65.10
2022-10-14T20:28:19.537Z,64.80
2022-10-14T20:30:48.425Z,64.90
2022-10-14T20:33:15.303Z,64.90
2022-10-14T20:35:42.173Z,64.80
2022-10-14T20:38:08.991Z,65.00
2022-10-14T20:40:37.142Z,64.80
2022-10-14T20:43:04.406Z,64.80
2022-10-14T20:45:31.388Z,64.80
2022-10-14T20:47:58.010Z,64.70
2022-10-14T20:50:24.701Z,64.80
2022-10-14T20:52:51.548Z,64.70
2022-10-14T20:55:19.409Z,64.70
2022-10-14T20:57:46.263Z,64.70
2022-10-14T21:00:13.692Z,64.60
2022-10-14T21:02:40.663Z,64.70
2022-10-14T21:05:07.861Z,64.60
2022-10-14T21:07:34.606Z,64.60
2022-10-14T21:10:01.950Z,64.50
2022-10-14T21:12:28.727Z,64.50
2022-10-14T21:14:55.489Z,64.40
2022-10-14T21:17:22.090Z,64.40
2022-10-14T21:19:49.398Z,64.20
2022-10-14T21:22:16.047Z,64.30
2022-10-14T21:24:43.174Z,64.10
2022-10-14T21:27:09.931Z,64.20
2022-10-14T21:29:36.801Z,64.10
2022-10-14T21:32:03.737Z,64.20
2022-10-14T21:34:30.618Z,64.20
2022-10-14T21:36:57.830Z,64.20
2022-10-14T21:39:24.690Z,64.30
2022-10-14T21:41:52.167Z,64.40
2022-10-14T21:44:20.379Z,64.50
2022-10-14T21:46:48.356Z,64.60
2022-10-14T21:49:15.354Z,64.70
2022-10-14T21:51:42.346Z,64.70
2022-10-14T21:54:12.130Z,64.80
2022-10-14T21:56:39.112Z,64.90
2022-10-14T21:59:06.637Z,64.80
2022-10-14T22:01:33.459Z,64.80
2022-10-14T22:04:05.669Z,64.80
2022-10-14T22:06:36.260Z,65.00
2022-10-14T22:09:06.392Z,65.10
2022-10-14T22:11:36.487Z,65.20
2022-10-14T22:14:05.987Z,65.10
2022-10-14T22:16:33.103Z,65.10
2022-10-14T22:19:02.172Z,65.00
2022-10-14T22:21:31.480Z,65.20
2022-10-14T22:23:58.867Z,65.10
2022-10-14T22:26:27.019Z,65.10
2022-10-14T22:28:59.572Z,65.20
2022-10-14T22:31:27.582Z,65.20
2022-10-14T22:33:54.266Z,65.10
2022-10-14T22:36:24.200Z,65.00
2022-10-14T22:38:52.505Z,65.20
2022-10-14T22:41:20.461Z,65.30
2022-10-14T22:43:52.446Z,65.30
2022-10-14T22:46:21.161Z,65.60
2022-10-14T22:48:58.915Z,65.40
2022-10-14T22:51:28.879Z,65.60
2022-10-14T22:53:56.456Z,65.70
2022-10-14T22:56:26.673Z,65.60
2022-10-14T22:58:55.099Z,65.80
2022-10-14T23:01:22.446Z,65.80
2022-10-14T23:03:49.986Z,65.80
2022-10-14T23:06:16.642Z,65.80
2022-10-14T23:08:43.913Z,65.90
2022-10-14T23:11:15.250Z,66.00
2022-10-14T23:13:42.291Z,66.10
2022-10-14T23:16:12.935Z,66.00
2022-10-14T23:18:40.053Z,66.20
2022-10-14T23:21:10.836Z,66.40
2022-10-14T23:23:37.912Z,66.30
2022-10-14T23:26:05.505Z,66.30
2022-10-14T23:28:32.284Z,66.30
2022-10-14T23:30:59.070Z,66.30
2022-10-14T23:33:26.683Z,66.20
2022-10-14T23:35:53.554Z,66.20
2022-10-14T23:38:20.171Z,66.20
2022-10-14T23:40:46.899Z,66.30
2022-10-14T23:43:13.745Z,66.40
2022-10-14T23:45:40.552Z,66.40
2022-10-14T23:48:07.245Z,66.80
2022-10-14T23:50:34.135Z,66.40
2022-10-14T23:53:00.798Z,66.50
2022-10-14T23:55:27.776Z,66.50
2022-10-14T23:57:54.416Z,66.50
